Terminal Aerodrome Forecast
Issued by NWS Quad Cities IA IL

Home | Current Version | Previous Version | Text Only | Print | Product List | Glossary On
Versions: 1 2 3 4 5 6 7 8 9 10 11 12 13 14 15 16 17 18 19 20 21 22 23 24 25 26 27
000
FTUS43 KDVN 071100 AAB
TAFMLI
TAF AMD
KMLI 071100Z 0711/0806 36006KT 2SM HZ BKN120
      TEMPO 0712/0714 3SM HZ
     FM071400 02008KT 5SM HZ SCT040
     FM071700 02010KT P6SM BKN050
     FM072300 03004KT P6SM SKC=

USA.gov is the U.S. government's official web portal to all federal, state and local government web resources and services.